Time;durP1;ratioP1;P1;durP2;ratioP2;P2;SDS_P1;SDS_P2;PMS_P1;PMS_P2;Temp;Humidity;BMP_temperature;BMP_pressure;BME280_temperature;BME280_humidity;BME280_pressure;Samples;Min_cycle;Max_cycle;Signal;HPM_P1;HPM_P2
2021/09/24 00:01:12;;;;;;;10.68;3.92;;;;;;;;;;4787225;29;20408;-83
2021/09/24 00:03:38;;;;;;;8.48;3.47;;;;;;;;;;4744643;29;20043;-81
2021/09/24 00:06:04;;;;;;;7.25;3.42;;;;;;;;;;4776037;29;20479;-82
2021/09/24 00:08:30;;;;;;;13.65;4.53;;;;;;;;;;4783518;29;20384;-82
2021/09/24 00:10:56;;;;;;;7.18;3.15;;;;;;;;;;4784263;29;20035;-80
2021/09/24 00:13:22;;;;;;;7.28;2.50;;;;;;;;;;4770343;29;20027;-83
2021/09/24 00:15:47;;;;;;;8.75;3.00;;;;;;;;;;4774600;29;20043;-81
2021/09/24 00:18:13;;;;;;;6.43;2.95;;;;;;;;;;4790693;29;20054;-81
2021/09/24 00:20:38;;;;;;;9.20;3.00;;;;;;;;;;4785731;29;20491;-81
2021/09/24 00:23:04;;;;;;;8.30;2.72;;;;;;;;;;4786381;29;20063;-80
2021/09/24 00:25:31;;;;;;;7.35;3.10;;;;;;;;;;4772476;29;20033;-80
2021/09/24 00:27:58;;;;;;;9.23;2.90;;;;;;;;;;4787555;30;20050;-81
2021/09/24 00:30:24;;;;;;;10.70;2.80;;;;;;;;;;4771869;29;20031;-80
2021/09/24 00:32:49;;;;;;;8.90;3.08;;;;;;;;;;4784827;29;20549;-80
2021/09/24 00:35:15;;;;;;;8.10;2.88;;;;;;;;;;4776715;29;20047;-81
2021/09/24 00:37:40;;;;;;;7.85;2.90;;;;;;;;;;4771630;29;20039;-83
2021/09/24 00:40:07;;;;;;;10.13;3.25;;;;;;;;;;4789229;29;20583;-81
2021/09/24 00:42:33;;;;;;;8.35;2.75;;;;;;;;;;4773182;29;20039;-82
2021/09/24 00:44:59;;;;;;;5.47;2.67;;;;;;;;;;4784977;29;20487;-80
2021/09/24 00:47:26;;;;;;;8.18;2.90;;;;;;;;;;4777614;29;20049;-80
2021/09/24 00:49:52;;;;;;;9.00;3.15;;;;;;;;;;4769695;30;20035;-80
2021/09/24 00:52:18;;;;;;;9.75;2.80;;;;;;;;;;4766083;29;20047;-83
2021/09/24 00:54:46;;;;;;;7.22;3.08;;;;;;;;;;4770810;29;20059;-81
2021/09/24 00:57:12;;;;;;;9.32;3.30;;;;;;;;;;4785373;29;20035;-83
2021/09/24 00:59:37;;;;;;;9.18;3.13;;;;;;;;;;4769875;29;20108;-81
2021/09/24 01:02:02;;;;;;;8.77;3.70;;;;;;;;;;4778612;29;20047;-80
2021/09/24 01:04:29;;;;;;;9.70;3.90;;;;;;;;;;4759612;29;20561;-81
2021/09/24 01:06:54;;;;;;;6.95;3.33;;;;;;;;;;4785777;29;20032;-82
2021/09/24 01:09:20;;;;;;;7.00;3.58;;;;;;;;;;4787173;29;20038;-83
2021/09/24 01:11:46;;;;;;;8.48;3.60;;;;;;;;;;4791946;29;20051;-82
2021/09/24 01:14:11;;;;;;;9.15;3.03;;;;;;;;;;4745421;30;20079;-80
2021/09/24 01:16:37;;;;;;;8.05;3.20;;;;;;;;;;4788028;29;20134;-81
2021/09/24 01:19:03;;;;;;;8.75;3.10;;;;;;;;;;4787343;29;20039;-80
2021/09/24 01:21:31;;;;;;;7.68;2.90;;;;;;;;;;4787265;29;20032;-81
2021/09/24 01:23:56;;;;;;;10.98;3.10;;;;;;;;;;4773908;30;20426;-81
2021/09/24 01:26:22;;;;;;;7.65;3.10;;;;;;;;;;4768200;30;20091;-83
2021/09/24 01:28:48;;;;;;;11.40;3.20;;;;;;;;;;4774049;30;20043;-80
2021/09/24 01:31:15;;;;;;;7.82;2.90;;;;;;;;;;4787993;29;20051;-80
2021/09/24 01:33:45;;;;;;;11.23;2.80;;;;;;;;;;4787769;29;20039;-80
2021/09/24 01:36:10;;;;;;;6.57;2.45;;;;;;;;;;4789870;29;20043;-80
2021/09/24 01:38:36;;;;;;;10.88;3.15;;;;;;;;;;4776397;29;20042;-82
2021/09/24 01:41:01;;;;;;;6.95;2.75;;;;;;;;;;4789806;29;20496;-80
2021/09/24 01:43:27;;;;;;;6.05;2.85;;;;;;;;;;4781918;29;20054;-83
2021/09/24 01:45:52;;;;;;;5.40;2.58;;;;;;;;;;4785149;29;20098;-82
2021/09/24 01:48:18;;;;;;;5.18;2.72;;;;;;;;;;4791913;29;20115;-83
2021/09/24 01:50:43;;;;;;;7.43;2.85;;;;;;;;;;4773823;29;20130;-80
2021/09/24 01:53:09;;;;;;;5.53;3.53;;;;;;;;;;4777740;29;20035;-83
2021/09/24 01:55:34;;;;;;;8.10;3.33;;;;;;;;;;4794444;29;20044;-81
2021/09/24 01:58:01;;;;;;;6.60;3.78;;;;;;;;;;4776845;30;20494;-82
2021/09/24 02:00:26;;;;;;;7.95;4.32;;;;;;;;;;4790200;29;20039;-80
2021/09/24 02:02:52;;;;;;;8.95;4.68;;;;;;;;;;4779563;29;20424;-83
2021/09/24 02:05:17;;;;;;;9.38;5.30;;;;;;;;;;4772391;30;20480;-80
2021/09/24 02:07:42;;;;;;;8.75;5.50;;;;;;;;;;4786353;29;20042;-82
2021/09/24 02:10:09;;;;;;;12.98;5.95;;;;;;;;;;4748936;30;20039;-83
2021/09/24 02:12:34;;;;;;;9.80;6.20;;;;;;;;;;4773620;30;20404;-81
2021/09/24 02:15:00;;;;;;;10.00;6.13;;;;;;;;;;4787446;30;20047;-82
2021/09/24 02:17:25;;;;;;;11.50;6.70;;;;;;;;;;4781851;29;20054;-80
2021/09/24 02:19:50;;;;;;;16.75;7.43;;;;;;;;;;4785796;30;20112;-80
2021/09/24 02:22:16;;;;;;;14.65;6.47;;;;;;;;;;4772711;29;20031;-80
2021/09/24 02:24:42;;;;;;;12.65;8.25;;;;;;;;;;4776624;30;20031;-81
2021/09/24 02:27:07;;;;;;;12.18;8.20;;;;;;;;;;4793941;29;20042;-82
2021/09/24 02:29:32;;;;;;;13.45;8.18;;;;;;;;;;4775893;29;20039;-83
2021/09/24 02:31:58;;;;;;;13.43;8.75;;;;;;;;;;4780948;29;20039;-82
2021/09/24 02:34:23;;;;;;;19.48;10.73;;;;;;;;;;4790024;29;20088;-80
2021/09/24 02:36:49;;;;;;;15.52;10.32;;;;;;;;;;4773358;30;20100;-80
2021/09/24 02:39:14;;;;;;;19.58;12.63;;;;;;;;;;4787377;29;20051;-81
2021/09/24 02:41:40;;;;;;;20.60;12.45;;;;;;;;;;4764499;29;20031;-80
2021/09/24 02:44:05;;;;;;;27.35;13.20;;;;;;;;;;4775090;30;20492;-80
2021/09/24 02:46:31;;;;;;;22.70;12.52;;;;;;;;;;4787920;29;20039;-80
2021/09/24 02:48:57;;;;;;;25.25;12.82;;;;;;;;;;4791209;29;20043;-81
2021/09/24 02:51:22;;;;;;;25.38;15.32;;;;;;;;;;4776135;29;20408;-83
2021/09/24 02:53:47;;;;;;;36.15;17.00;;;;;;;;;;4776579;29;20035;-81
2021/09/24 02:56:13;;;;;;;28.40;17.13;;;;;;;;;;4790454;29;20051;-81
2021/09/24 02:58:38;;;;;;;30.48;17.60;;;;;;;;;;4789463;29;20368;-81
2021/09/24 03:01:04;;;;;;;36.42;18.90;;;;;;;;;;4786950;29;20138;-81
2021/09/24 03:03:29;;;;;;;29.50;19.17;;;;;;;;;;4785058;29;20038;-80
2021/09/24 03:05:54;;;;;;;37.03;18.85;;;;;;;;;;4790633;29;20041;-80
2021/09/24 03:08:21;;;;;;;31.05;19.67;;;;;;;;;;4786226;29;20074;-81
2021/09/24 03:10:47;;;;;;;29.05;18.20;;;;;;;;;;4772856;30;20040;-81
2021/09/24 03:13:12;;;;;;;34.55;18.60;;;;;;;;;;4780813;29;20063;-82
2021/09/24 03:15:38;;;;;;;36.42;19.35;;;;;;;;;;4771487;30;20422;-80
2021/09/24 03:18:03;;;;;;;29.98;18.85;;;;;;;;;;4786119;29;20667;-81
2021/09/24 03:20:29;;;;;;;35.70;19.55;;;;;;;;;;4789517;29;20526;-83
2021/09/24 03:22:55;;;;;;;34.90;18.40;;;;;;;;;;4758868;30;20512;-81
2021/09/24 03:25:21;;;;;;;30.77;18.30;;;;;;;;;;4785584;29;20118;-81
2021/09/24 03:27:48;;;;;;;31.77;18.00;;;;;;;;;;4769530;30;20039;-81
2021/09/24 03:30:14;;;;;;;34.72;18.48;;;;;;;;;;4784420;29;20040;-81
2021/09/24 03:32:40;;;;;;;35.17;19.55;;;;;;;;;;4786515;29;20039;-83
2021/09/24 03:35:06;;;;;;;38.90;18.42;;;;;;;;;;4783549;29;20377;-80
2021/09/24 03:37:31;;;;;;;37.15;20.38;;;;;;;;;;4792504;29;20046;-83
2021/09/24 03:39:57;;;;;;;40.65;19.77;;;;;;;;;;4770447;30;20047;-80
2021/09/24 03:42:22;;;;;;;34.28;18.45;;;;;;;;;;4787292;29;20104;-83
2021/09/24 03:44:48;;;;;;;38.70;19.50;;;;;;;;;;4773502;29;20443;-82
2021/09/24 03:47:13;;;;;;;39.80;19.75;;;;;;;;;;4784718;29;20116;-81
2021/09/24 03:49:39;;;;;;;41.25;20.92;;;;;;;;;;4775707;30;20227;-80
2021/09/24 03:52:04;;;;;;;41.15;19.83;;;;;;;;;;4785407;29;20046;-80
2021/09/24 03:54:30;;;;;;;44.42;20.42;;;;;;;;;;4787835;29;20503;-80
2021/09/24 03:56:56;;;;;;;39.67;20.42;;;;;;;;;;4789728;29;20511;-80
2021/09/24 03:59:22;;;;;;;45.15;20.70;;;;;;;;;;4769981;30;20063;-81
2021/09/24 04:01:47;;;;;;;49.42;22.40;;;;;;;;;;4785549;29;20320;-81
2021/09/24 04:04:12;;;;;;;43.05;20.60;;;;;;;;;;4792214;29;20135;-83
2021/09/24 04:06:38;;;;;;;44.50;21.23;;;;;;;;;;4773235;29;20039;-80
2021/09/24 04:09:03;;;;;;;49.85;22.88;;;;;;;;;;4770675;30;20027;-81
2021/09/24 04:11:29;;;;;;;47.13;20.40;;;;;;;;;;4784320;29;20039;-82
2021/09/24 04:13:54;;;;;;;47.90;21.38;;;;;;;;;;4786642;29;20119;-80
2021/09/24 04:16:21;;;;;;;46.58;21.65;;;;;;;;;;4787984;29;20461;-80
2021/09/24 04:18:47;;;;;;;50.50;22.40;;;;;;;;;;4786915;29;20063;-81
2021/09/24 04:21:13;;;;;;;46.88;22.30;;;;;;;;;;4784026;29;20050;-81
2021/09/24 04:23:38;;;;;;;46.03;22.33;;;;;;;;;;4768152;30;20039;-80
2021/09/24 04:26:04;;;;;;;44.33;20.88;;;;;;;;;;4750808;30;20032;-82
2021/09/24 04:28:29;;;;;;;44.20;21.40;;;;;;;;;;4789234;29;20047;-81
2021/09/24 04:30:55;;;;;;;49.55;23.58;;;;;;;;;;4787065;29;20046;-80
2021/09/24 04:33:20;;;;;;;40.05;21.23;;;;;;;;;;4786144;29;20104;-83
2021/09/24 04:35:46;;;;;;;45.63;22.25;;;;;;;;;;4787638;29;20129;-83
2021/09/24 04:38:11;;;;;;;42.60;22.05;;;;;;;;;;4792489;29;20693;-80
2021/09/24 04:40:38;;;;;;;48.90;22.65;;;;;;;;;;4786759;29;20035;-81
2021/09/24 04:43:04;;;;;;;41.90;22.58;;;;;;;;;;4771497;30;20486;-83
2021/09/24 04:45:30;;;;;;;45.78;22.65;;;;;;;;;;4783592;29;20103;-82
2021/09/24 04:47:55;;;;;;;44.17;23.27;;;;;;;;;;4795076;29;20476;-81
2021/09/24 04:50:21;;;;;;;46.17;23.35;;;;;;;;;;4773731;30;20031;-83
2021/09/24 04:52:46;;;;;;;46.97;23.17;;;;;;;;;;4785078;29;20113;-83
2021/09/24 04:55:12;;;;;;;50.65;23.98;;;;;;;;;;4759403;30;20141;-80
2021/09/24 04:57:37;;;;;;;47.85;24.50;;;;;;;;;;4785540;29;20062;-80
2021/09/24 05:00:05;;;;;;;40.67;21.05;;;;;;;;;;4774977;30;20040;-80
2021/09/24 05:02:30;;;;;;;41.00;21.17;;;;;;;;;;4768226;30;20035;-82
2021/09/24 05:04:56;;;;;;;37.83;20.88;;;;;;;;;;4758937;29;20492;-83
2021/09/24 05:07:21;;;;;;;38.60;21.27;;;;;;;;;;4778356;29;20040;-81
2021/09/24 05:09:47;;;;;;;38.75;19.80;;;;;;;;;;4784783;29;20054;-81
2021/09/24 05:12:12;;;;;;;36.03;19.80;;;;;;;;;;4783018;29;20071;-81
2021/09/24 05:14:37;;;;;;;34.17;18.77;;;;;;;;;;4753040;30;20051;-83
2021/09/24 05:17:03;;;;;;;34.38;18.50;;;;;;;;;;4769724;30;20038;-80
2021/09/24 05:19:28;;;;;;;31.77;17.85;;;;;;;;;;4740363;29;20039;-80
2021/09/24 05:21:54;;;;;;;31.05;17.75;;;;;;;;;;4756217;29;20097;-81
2021/09/24 05:24:19;;;;;;;35.97;19.55;;;;;;;;;;4788865;29;20035;-82
2021/09/24 05:26:45;;;;;;;31.85;17.65;;;;;;;;;;4783333;29;20031;-81
2021/09/24 05:29:10;;;;;;;30.70;18.55;;;;;;;;;;4782285;29;20407;-80
2021/09/24 05:31:35;;;;;;;30.92;18.92;;;;;;;;;;4757267;30;20545;-80
2021/09/24 05:34:02;;;;;;;35.30;18.92;;;;;;;;;;4786634;30;20035;-81
2021/09/24 05:36:28;;;;;;;37.65;19.98;;;;;;;;;;4786031;29;20461;-83
2021/09/24 05:38:54;;;;;;;33.38;19.13;;;;;;;;;;4789591;29;20035;-80
2021/09/24 05:41:19;;;;;;;37.40;19.65;;;;;;;;;;4772718;29;20476;-80
2021/09/24 05:43:45;;;;;;;34.83;19.75;;;;;;;;;;4794582;29;20099;-83
2021/09/24 05:46:10;;;;;;;35.22;19.38;;;;;;;;;;4773652;30;20035;-83
2021/09/24 05:48:36;;;;;;;34.95;19.75;;;;;;;;;;4772524;29;20040;-81
2021/09/24 05:51:02;;;;;;;36.05;19.73;;;;;;;;;;4762070;30;20046;-83
2021/09/24 05:53:27;;;;;;;38.10;20.02;;;;;;;;;;4776134;30;20040;-83
2021/09/24 05:55:53;;;;;;;35.72;19.50;;;;;;;;;;4774584;30;20159;-80
2021/09/24 05:58:18;;;;;;;37.33;19.88;;;;;;;;;;4764618;30;20160;-81
2021/09/24 06:00:44;;;;;;;41.63;20.65;;;;;;;;;;4790269;29;20035;-83
2021/09/24 06:03:09;;;;;;;40.25;20.30;;;;;;;;;;4774847;30;20051;-82
2021/09/24 06:05:34;;;;;;;36.67;20.45;;;;;;;;;;4775979;30;20123;-83
2021/09/24 06:08:00;;;;;;;41.42;21.05;;;;;;;;;;4764547;29;20042;-80
2021/09/24 06:10:25;;;;;;;38.50;21.20;;;;;;;;;;4791271;29;20036;-81
2021/09/24 06:12:51;;;;;;;43.63;22.65;;;;;;;;;;4787959;29;20028;-81
2021/09/24 06:15:22;;;;;;;38.63;22.15;;;;;;;;;;4776491;30;20092;-83
2021/09/24 06:17:48;;;;;;;41.53;22.25;;;;;;;;;;4791033;29;20031;-82
2021/09/24 06:20:15;;;;;;;43.78;23.38;;;;;;;;;;4767271;30;20039;-81
2021/09/24 06:22:42;;;;;;;44.83;23.05;;;;;;;;;;4780487;29;20130;-80
2021/09/24 06:25:08;;;;;;;43.20;22.77;;;;;;;;;;4788545;29;20091;-80
2021/09/24 06:27:36;;;;;;;42.15;21.83;;;;;;;;;;4775737;30;20515;-83
2021/09/24 06:30:03;;;;;;;48.90;23.92;;;;;;;;;;4773810;30;20038;-81
2021/09/24 06:32:28;;;;;;;51.20;25.20;;;;;;;;;;4791778;29;20039;-83
2021/09/24 06:34:54;;;;;;;54.92;25.73;;;;;;;;;;4793161;29;20389;-81
2021/09/24 06:37:19;;;;;;;54.25;25.40;;;;;;;;;;4786288;29;20519;-80
2021/09/24 06:39:45;;;;;;;58.33;25.38;;;;;;;;;;4782557;29;20043;-81
2021/09/24 06:42:11;;;;;;;59.83;25.33;;;;;;;;;;4789555;29;20463;-80
2021/09/24 06:44:37;;;;;;;60.67;24.77;;;;;;;;;;4770452;30;20538;-80
2021/09/24 06:47:02;;;;;;;51.33;24.15;;;;;;;;;;4785144;29;20063;-80
2021/09/24 06:49:28;;;;;;;60.58;24.88;;;;;;;;;;4781072;29;20044;-80
2021/09/24 06:51:54;;;;;;;67.07;26.55;;;;;;;;;;4783730;29;20514;-80
2021/09/24 06:54:20;;;;;;;56.28;25.23;;;;;;;;;;4773932;29;20476;-81
2021/09/24 06:56:47;;;;;;;55.67;25.33;;;;;;;;;;4789526;29;20050;-80
2021/09/24 06:59:13;;;;;;;58.75;25.23;;;;;;;;;;4771026;30;20125;-81
2021/09/24 07:01:41;;;;;;;68.50;27.08;;;;;;;;;;4759115;30;20038;-80
2021/09/24 07:04:07;;;;;;;63.78;26.55;;;;;;;;;;4777862;30;20043;-81
2021/09/24 07:06:32;;;;;;;68.25;26.27;;;;;;;;;;4776185;29;20047;-82
2021/09/24 07:08:57;;;;;;;59.10;25.08;;;;;;;;;;4790623;29;20043;-80
2021/09/24 07:11:24;;;;;;;61.38;25.50;;;;;;;;;;4776229;30;20035;-80
2021/09/24 07:13:50;;;;;;;65.72;26.55;;;;;;;;;;4779239;30;20032;-80
2021/09/24 07:16:15;;;;;;;71.00;26.55;;;;;;;;;;4784936;29;20094;-83
2021/09/24 07:18:40;;;;;;;68.75;26.48;;;;;;;;;;4784106;29;20039;-81
2021/09/24 07:21:06;;;;;;;72.05;27.40;;;;;;;;;;4767216;29;20051;-81
2021/09/24 07:23:31;;;;;;;62.78;26.45;;;;;;;;;;4780828;29;20035;-81
2021/09/24 07:25:57;;;;;;;72.50;28.27;;;;;;;;;;4791441;29;20035;-80
2021/09/24 07:28:22;;;;;;;69.53;27.58;;;;;;;;;;4789819;29;20031;-82
2021/09/24 07:30:48;;;;;;;61.65;26.05;;;;;;;;;;4756004;30;20061;-83
2021/09/24 07:33:13;;;;;;;69.72;27.27;;;;;;;;;;4763649;29;20031;-81
2021/09/24 07:35:39;;;;;;;60.53;26.58;;;;;;;;;;4790962;29;20392;-81
2021/09/24 07:38:04;;;;;;;58.67;25.95;;;;;;;;;;4770043;29;20460;-83
2021/09/24 07:40:30;;;;;;;61.60;25.90;;;;;;;;;;4783776;29;20035;-81
2021/09/24 07:42:56;;;;;;;62.70;26.48;;;;;;;;;;4747542;30;20516;-81
2021/09/24 07:45:22;;;;;;;59.88;25.30;;;;;;;;;;4784982;29;20088;-80
2021/09/24 07:47:48;;;;;;;58.10;26.58;;;;;;;;;;4778146;30;20202;-80
2021/09/24 07:50:14;;;;;;;50.97;24.20;;;;;;;;;;4782864;29;20044;-83
2021/09/24 07:52:40;;;;;;;53.20;25.42;;;;;;;;;;4777126;30;20046;-83
2021/09/24 07:55:06;;;;;;;55.88;24.90;;;;;;;;;;4789472;29;20040;-81
2021/09/24 07:57:32;;;;;;;53.00;25.83;;;;;;;;;;4796715;29;20039;-81
2021/09/24 07:59:57;;;;;;;53.83;25.23;;;;;;;;;;4768053;30;20043;-82
2021/09/24 08:02:23;;;;;;;52.33;25.73;;;;;;;;;;4779724;29;20384;-83
2021/09/24 08:04:49;;;;;;;49.78;24.75;;;;;;;;;;4787589;29;20133;-81
2021/09/24 08:07:14;;;;;;;50.47;24.13;;;;;;;;;;4791151;29;20038;-81
2021/09/24 08:09:39;;;;;;;49.65;24.45;;;;;;;;;;4779656;29;20058;-82
2021/09/24 08:12:05;;;;;;;51.00;24.15;;;;;;;;;;4776518;29;20495;-82
2021/09/24 08:14:31;;;;;;;49.95;25.10;;;;;;;;;;4787956;29;20043;-82
2021/09/24 08:16:57;;;;;;;51.95;25.10;;;;;;;;;;4788239;29;20038;-80
2021/09/24 08:19:22;;;;;;;51.58;24.55;;;;;;;;;;4789667;29;20031;-80
2021/09/24 08:21:48;;;;;;;48.72;24.20;;;;;;;;;;4772773;30;20047;-83
2021/09/24 08:24:13;;;;;;;46.47;23.80;;;;;;;;;;4780679;29;20040;-82
2021/09/24 08:26:39;;;;;;;49.25;23.02;;;;;;;;;;4784471;29;20430;-80
2021/09/24 08:29:04;;;;;;;41.42;22.20;;;;;;;;;;4787019;30;20046;-82
2021/09/24 08:31:30;;;;;;;45.63;22.52;;;;;;;;;;4784524;30;20035;-83
2021/09/24 08:33:58;;;;;;;41.22;21.17;;;;;;;;;;4785743;29;20046;-82
2021/09/24 08:36:24;;;;;;;40.22;21.40;;;;;;;;;;4792533;29;20027;-82
2021/09/24 08:38:49;;;;;;;40.30;22.08;;;;;;;;;;4774802;30;20043;-83
2021/09/24 08:41:15;;;;;;;35.67;19.42;;;;;;;;;;4760234;30;20038;-83
2021/09/24 08:43:40;;;;;;;34.40;19.73;;;;;;;;;;4772048;30;20041;-82
2021/09/24 08:46:06;;;;;;;33.83;20.00;;;;;;;;;;4781356;29;20043;-81
2021/09/24 08:48:34;;;;;;;38.58;20.45;;;;;;;;;;4790249;29;20552;-82
2021/09/24 08:51:00;;;;;;;34.40;20.00;;;;;;;;;;4783379;29;20047;-82
2021/09/24 08:53:26;;;;;;;29.45;19.27;;;;;;;;;;4790534;29;20467;-80
2021/09/24 08:55:52;;;;;;;33.20;18.83;;;;;;;;;;4770929;30;20055;-80
2021/09/24 08:58:18;;;;;;;30.13;18.20;;;;;;;;;;4792869;29;20392;-81
2021/09/24 09:00:43;;;;;;;30.00;19.08;;;;;;;;;;4786430;29;20038;-82
2021/09/24 09:03:14;;;;;;;32.92;19.05;;;;;;;;;;4771895;30;20096;-83
2021/09/24 09:05:50;;;;;;;33.30;19.10;;;;;;;;;;4776941;29;20043;-81
2021/09/24 09:08:30;;;;;;;28.90;17.90;;;;;;;;;;4788394;29;20066;-80
2021/09/24 09:11:08;;;;;;;32.15;18.25;;;;;;;;;;4788769;29;20170;-80
2021/09/24 09:13:40;;;;;;;25.45;16.98;;;;;;;;;;4784689;30;20449;-80
2021/09/24 09:16:13;;;;;;;27.80;17.27;;;;;;;;;;4786424;29;20035;-80
2021/09/24 09:18:40;;;;;;;29.27;17.65;;;;;;;;;;4772424;30;20043;-83
2021/09/24 09:21:08;;;;;;;26.60;16.40;;;;;;;;;;4778042;30;20043;-83
2021/09/24 09:23:38;;;;;;;23.90;15.95;;;;;;;;;;4786458;29;20035;-82
2021/09/24 09:26:08;;;;;;;23.55;16.63;;;;;;;;;;4783820;29;20042;-84
2021/09/24 09:28:33;;;;;;;24.52;15.05;;;;;;;;;;4773041;29;20065;-81
2021/09/24 09:30:59;;;;;;;23.60;14.27;;;;;;;;;;4798352;29;20035;-84
2021/09/24 09:33:25;;;;;;;20.23;14.50;;;;;;;;;;4789101;29;20088;-81
2021/09/24 09:35:57;;;;;;;20.70;14.90;;;;;;;;;;4787815;29;20042;-81
2021/09/24 09:38:36;;;;;;;21.40;14.85;;;;;;;;;;4791169;30;20039;-83
2021/09/24 09:41:08;;;;;;;24.42;16.30;;;;;;;;;;4777350;30;20033;-80
2021/09/24 09:43:40;;;;;;;22.70;15.18;;;;;;;;;;4786381;29;20123;-81
2021/09/24 09:46:09;;;;;;;21.00;14.90;;;;;;;;;;4785587;29;20031;-83
2021/09/24 09:48:35;;;;;;;26.95;17.48;;;;;;;;;;4784994;29;20096;-82
2021/09/24 09:51:01;;;;;;;28.15;18.38;;;;;;;;;;4767007;30;20043;-82
2021/09/24 09:53:27;;;;;;;30.33;18.60;;;;;;;;;;4789519;29;20046;-83
2021/09/24 09:56:00;;;;;;;27.45;18.70;;;;;;;;;;4797575;29;20141;-82
2021/09/24 09:58:31;;;;;;;25.55;16.17;;;;;;;;;;4794656;29;20068;-82
2021/09/24 10:01:06;;;;;;;25.55;16.73;;;;;;;;;;4791697;29;20059;-81
2021/09/24 10:03:47;;;;;;;23.90;16.92;;;;;;;;;;4792611;29;20120;-81
2021/09/24 10:06:37;;;;;;;24.92;17.33;;;;;;;;;;4788600;29;20035;-84
2021/09/24 10:09:04;;;;;;;26.05;18.35;;;;;;;;;;4779329;30;20046;-81
2021/09/24 10:11:29;;;;;;;29.00;18.73;;;;;;;;;;4774378;30;20035;-81
2021/09/24 10:14:01;;;;;;;24.30;18.30;;;;;;;;;;4789350;29;20126;-81
2021/09/24 10:16:29;;;;;;;23.88;17.52;;;;;;;;;;4790295;29;20541;-82
2021/09/24 10:18:55;;;;;;;28.35;19.20;;;;;;;;;;4786108;29;20083;-81
2021/09/24 10:21:20;;;;;;;27.67;19.88;;;;;;;;;;4772481;29;20122;-81
2021/09/24 10:23:47;;;;;;;26.25;19.55;;;;;;;;;;4780481;30;20035;-81
2021/09/24 10:26:42;;;;;;;29.45;20.27;;;;;;;;;;4788717;29;20488;-83
2021/09/24 10:29:07;;;;;;;28.27;19.40;;;;;;;;;;4789275;29;20441;-81
2021/09/24 10:31:38;;;;;;;33.42;20.55;;;;;;;;;;4788229;29;20103;-81
2021/09/24 10:34:06;;;;;;;27.58;20.02;;;;;;;;;;4794893;29;20031;-81
2021/09/24 10:36:40;;;;;;;28.95;19.92;;;;;;;;;;4786050;29;20177;-82
2021/09/24 10:39:31;;;;;;;28.75;20.20;;;;;;;;;;4790560;29;20111;-82
2021/09/24 10:42:22;;;;;;;34.83;22.02;;;;;;;;;;4793764;29;20445;-83
2021/09/24 10:45:03;;;;;;;28.27;19.90;;;;;;;;;;4785097;30;20074;-81
2021/09/24 10:47:50;;;;;;;28.42;19.08;;;;;;;;;;4793571;29;20031;-82
2021/09/24 10:53:11;;;;;;;29.40;18.90;;;;;;;;;;4792387;29;20399;-81
2021/09/24 10:55:41;;;;;;;25.02;17.80;;;;;;;;;;4791796;29;20058;-84
2021/09/24 10:58:11;;;;;;;26.60;17.83;;;;;;;;;;4791378;30;20027;-84
2021/09/24 11:00:36;;;;;;;23.20;17.30;;;;;;;;;;4785939;29;20034;-83
2021/09/24 11:03:09;;;;;;;23.60;16.42;;;;;;;;;;4759284;30;20031;-81
2021/09/24 11:06:03;;;;;;;23.80;17.08;;;;;;;;;;4770369;29;20414;-83
2021/09/24 11:08:29;;;;;;;20.42;15.13;;;;;;;;;;4789846;30;20041;-81
2021/09/24 11:11:04;;;;;;;20.05;14.55;;;;;;;;;;4785252;29;20035;-81
2021/09/24 11:13:31;;;;;;;18.77;13.57;;;;;;;;;;4790028;29;20039;-82
2021/09/24 11:16:02;;;;;;;17.88;13.07;;;;;;;;;;4788890;29;20039;-81
2021/09/24 11:18:49;;;;;;;18.05;11.70;;;;;;;;;;4795548;29;20030;-81
2021/09/24 11:21:16;;;;;;;12.57;9.77;;;;;;;;;;4802127;29;20107;-81
2021/09/24 11:23:42;;;;;;;13.00;10.63;;;;;;;;;;4788561;29;20019;-84
2021/09/24 11:26:16;;;;;;;15.05;10.40;;;;;;;;;;4770660;29;20035;-83
2021/09/24 11:28:44;;;;;;;14.60;10.38;;;;;;;;;;4790760;29;20560;-82
2021/09/24 11:31:11;;;;;;;15.25;11.25;;;;;;;;;;4795584;29;20035;-81
2021/09/24 11:33:38;;;;;;;12.18;10.43;;;;;;;;;;4794169;29;20027;-81
2021/09/24 11:36:03;;;;;;;14.73;10.80;;;;;;;;;;4793696;29;20039;-82
2021/09/24 11:38:29;;;;;;;13.93;10.88;;;;;;;;;;4765870;29;20043;-81
2021/09/24 11:40:58;;;;;;;14.70;11.23;;;;;;;;;;4787848;29;20038;-84
2021/09/24 11:43:35;;;;;;;13.80;10.27;;;;;;;;;;4781765;29;20588;-84
2021/09/24 11:46:11;;;;;;;13.40;10.60;;;;;;;;;;4792609;29;20059;-83
2021/09/24 11:48:37;;;;;;;13.57;11.00;;;;;;;;;;4779073;30;20027;-81
2021/09/24 11:51:20;;;;;;;14.25;10.48;;;;;;;;;;4793592;29;20029;-80
2021/09/24 11:53:57;;;;;;;13.88;10.95;;;;;;;;;;4793216;29;20043;-81
2021/09/24 11:56:33;;;;;;;14.25;9.93;;;;;;;;;;4791240;29;20055;-81
2021/09/24 11:59:10;;;;;;;14.65;10.63;;;;;;;;;;4790616;29;20059;-82
2021/09/24 12:01:36;;;;;;;14.65;10.15;;;;;;;;;;4788021;30;20041;-81
2021/09/24 12:04:03;;;;;;;15.45;10.07;;;;;;;;;;4754186;30;20035;-81
2021/09/24 12:06:37;;;;;;;12.23;9.80;;;;;;;;;;4774934;30;20395;-81
2021/09/24 12:09:11;;;;;;;15.63;9.73;;;;;;;;;;4799354;29;20038;-81
2021/09/24 12:11:49;;;;;;;13.73;10.05;;;;;;;;;;4783052;29;20035;-83
2021/09/24 12:14:15;;;;;;;12.43;9.63;;;;;;;;;;4774934;30;20042;-82
2021/09/24 12:16:42;;;;;;;11.50;9.25;;;;;;;;;;4787804;29;20058;-81
2021/09/24 12:19:17;;;;;;;13.25;10.00;;;;;;;;;;4771880;30;20495;-81
2021/09/24 12:21:48;;;;;;;13.13;9.80;;;;;;;;;;4789885;29;20027;-83
2021/09/24 12:24:18;;;;;;;15.20;10.10;;;;;;;;;;4794996;29;20039;-82
2021/09/24 12:26:50;;;;;;;12.68;9.93;;;;;;;;;;4789389;29;20030;-82
2021/09/24 12:29:16;;;;;;;12.05;9.15;;;;;;;;;;4775393;29;20423;-81
2021/09/24 12:31:47;;;;;;;12.18;8.90;;;;;;;;;;4787669;29;20023;-83
2021/09/24 12:34:38;;;;;;;11.27;9.50;;;;;;;;;;4793041;29;20038;-84
2021/09/24 12:37:03;;;;;;;13.40;9.60;;;;;;;;;;4790513;29;20043;-81
2021/09/24 12:39:37;;;;;;;14.57;10.30;;;;;;;;;;4791960;29;20050;-82
2021/09/24 12:42:05;;;;;;;13.80;10.00;;;;;;;;;;4790400;29;20035;-83
2021/09/24 12:44:31;;;;;;;13.23;9.85;;;;;;;;;;4776779;30;20037;-81
2021/09/24 12:46:59;;;;;;;14.25;10.05;;;;;;;;;;4788297;29;20030;-81
2021/09/24 12:49:25;;;;;;;14.52;10.70;;;;;;;;;;4784832;29;20060;-82
2021/09/24 12:51:51;;;;;;;12.00;9.93;;;;;;;;;;4767163;30;20404;-82
2021/09/24 12:54:23;;;;;;;14.00;10.05;;;;;;;;;;4778418;29;20126;-82
2021/09/24 12:56:49;;;;;;;15.93;10.38;;;;;;;;;;4792426;29;20381;-81
2021/09/24 12:59:16;;;;;;;15.63;10.68;;;;;;;;;;4793906;29;20467;-83
2021/09/24 13:01:41;;;;;;;12.23;9.35;;;;;;;;;;4788280;29;20067;-80
2021/09/24 13:04:08;;;;;;;13.25;9.63;;;;;;;;;;4778926;30;20047;-83
2021/09/24 13:06:34;;;;;;;13.07;8.77;;;;;;;;;;4796091;29;20046;-83
2021/09/24 13:08:59;;;;;;;11.63;9.27;;;;;;;;;;4764606;30;20039;-83
2021/09/24 13:11:27;;;;;;;12.35;9.18;;;;;;;;;;4791978;29;20051;-83
2021/09/24 13:13:55;;;;;;;14.23;9.52;;;;;;;;;;4774562;29;20030;-81
2021/09/24 13:16:22;;;;;;;11.43;8.82;;;;;;;;;;4785766;29;20033;-83
2021/09/24 13:18:48;;;;;;;10.43;8.63;;;;;;;;;;4776955;30;20496;-84
2021/09/24 13:21:16;;;;;;;11.15;8.25;;;;;;;;;;4785923;30;20046;-82
2021/09/24 13:23:45;;;;;;;12.00;8.40;;;;;;;;;;4795184;29;20031;-82
2021/09/24 13:26:11;;;;;;;10.88;8.50;;;;;;;;;;4797087;29;20115;-82
2021/09/24 13:28:37;;;;;;;11.20;8.90;;;;;;;;;;4781101;29;20039;-81
2021/09/24 13:31:02;;;;;;;10.77;8.70;;;;;;;;;;4766275;29;20096;-84
2021/09/24 13:33:28;;;;;;;9.95;7.57;;;;;;;;;;4768113;30;20068;-81
2021/09/24 13:35:53;;;;;;;9.77;7.65;;;;;;;;;;4770998;30;20062;-84
2021/09/24 13:38:18;;;;;;;9.35;8.05;;;;;;;;;;4757182;29;20054;-81
2021/09/24 13:40:44;;;;;;;9.30;8.32;;;;;;;;;;4783344;29;20179;-83
2021/09/24 13:43:09;;;;;;;10.43;8.55;;;;;;;;;;4781849;30;20043;-84
2021/09/24 13:45:35;;;;;;;10.68;8.05;;;;;;;;;;4786460;29;20050;-84
2021/09/24 13:48:01;;;;;;;11.88;8.20;;;;;;;;;;4758450;29;20047;-84
2021/09/24 13:50:26;;;;;;;13.70;8.38;;;;;;;;;;4770214;30;20063;-83
2021/09/24 13:52:54;;;;;;;10.85;7.80;;;;;;;;;;4771897;29;20039;-81
2021/09/24 13:55:19;;;;;;;11.40;8.43;;;;;;;;;;4782538;29;20198;-81
2021/09/24 13:57:45;;;;;;;10.68;8.10;;;;;;;;;;4780283;30;20175;-84
2021/09/24 14:00:11;;;;;;;11.23;8.27;;;;;;;;;;4769715;29;20400;-81
2021/09/24 14:02:36;;;;;;;9.95;8.27;;;;;;;;;;4783538;29;20047;-81
2021/09/24 14:05:02;;;;;;;10.98;8.30;;;;;;;;;;4783423;29;20119;-81
2021/09/24 14:07:27;;;;;;;10.70;8.70;;;;;;;;;;4788613;29;20122;-81
2021/09/24 14:09:54;;;;;;;12.70;8.88;;;;;;;;;;4787299;29;20034;-83
2021/09/24 14:12:19;;;;;;;12.10;8.50;;;;;;;;;;4781565;29;20049;-81
2021/09/24 14:14:45;;;;;;;10.80;8.15;;;;;;;;;;4790914;29;20039;-81
2021/09/24 14:17:10;;;;;;;10.43;8.10;;;;;;;;;;4784435;29;20114;-81
2021/09/24 14:19:36;;;;;;;9.80;7.68;;;;;;;;;;4772959;29;20040;-81
2021/09/24 14:22:03;;;;;;;10.48;7.72;;;;;;;;;;4770257;30;20043;-81
2021/09/24 14:24:29;;;;;;;9.68;7.70;;;;;;;;;;4783265;29;20067;-81
2021/09/24 14:26:55;;;;;;;11.20;8.05;;;;;;;;;;4785549;29;20066;-81